sensor_id;sensor_type;location;lat;lon;timestamp;temperature;humidity
75321;DHT22;68337;52.196;5.660;2024-02-21T00:02:12;9.40;99.90
75321;DHT22;68337;52.196;5.660;2024-02-21T00:04:37;9.50;99.90
75321;DHT22;68337;52.196;5.660;2024-02-21T00:07:04;9.50;99.90
75321;DHT22;68337;52.196;5.660;2024-02-21T00:09:30;9.50;99.90
75321;DHT22;68337;52.196;5.660;2024-02-21T00:11:56;9.50;99.90
75321;DHT22;68337;52.196;5.660;2024-02-21T00:14:21;9.40;99.90
75321;DHT22;68337;52.196;5.660;2024-02-21T00:16:47;9.40;99.90
75321;DHT22;68337;52.196;5.660;2024-02-21T00:19:13;9.40;99.90
75321;DHT22;68337;52.196;5.660;2024-02-21T00:21:40;9.40;99.90
75321;DHT22;68337;52.196;5.660;2024-02-21T00:24:06;9.40;99.90
75321;DHT22;68337;52.196;5.660;2024-02-21T00:26:32;9.40;99.90
75321;DHT22;68337;52.196;5.660;2024-02-21T00:28:57;9.40;99.90
75321;DHT22;68337;52.196;5.660;2024-02-21T00:31:23;9.80;99.90
75321;DHT22;68337;52.196;5.660;2024-02-21T00:33:49;9.40;99.90
75321;DHT22;68337;52.196;5.660;2024-02-21T00:36:16;9.40;99.90
75321;DHT22;68337;52.196;5.660;2024-02-21T00:38:41;9.40;99.90
75321;DHT22;68337;52.196;5.660;2024-02-21T00:41:07;9.40;99.90
75321;DHT22;68337;52.196;5.660;2024-02-21T00:43:33;9.40;99.90
75321;DHT22;68337;52.196;5.660;2024-02-21T00:45:59;9.40;99.90
75321;DHT22;68337;52.196;5.660;2024-02-21T00:48:24;9.40;99.90
75321;DHT22;68337;52.196;5.660;2024-02-21T00:50:50;9.40;99.90
75321;DHT22;68337;52.196;5.660;2024-02-21T00:53:16;9.40;99.90
75321;DHT22;68337;52.196;5.660;2024-02-21T00:55:41;9.40;99.90
75321;DHT22;68337;52.196;5.660;2024-02-21T00:58:08;9.40;99.90
75321;DHT22;68337;52.196;5.660;2024-02-21T01:00:34;9.30;99.90
75321;DHT22;68337;52.196;5.660;2024-02-21T01:03:00;9.30;99.90
75321;DHT22;68337;52.196;5.660;2024-02-21T01:05:26;9.30;99.90
75321;DHT22;68337;52.196;5.660;2024-02-21T01:07:53;9.40;99.90
75321;DHT22;68337;52.196;5.660;2024-02-21T01:10:19;9.40;99.90
75321;DHT22;68337;52.196;5.660;2024-02-21T01:12:45;9.40;99.90
75321;DHT22;68337;52.196;5.660;2024-02-21T01:15:10;9.40;99.90
75321;DHT22;68337;52.196;5.660;2024-02-21T01:17:37;9.40;99.90
75321;DHT22;68337;52.196;5.660;2024-02-21T01:20:03;9.40;99.90
75321;DHT22;68337;52.196;5.660;2024-02-21T01:22:31;9.40;99.90
75321;DHT22;68337;52.196;5.660;2024-02-21T01:24:56;9.40;99.90
75321;DHT22;68337;52.196;5.660;2024-02-21T01:27:22;9.50;99.90
75321;DHT22;68337;52.196;5.660;2024-02-21T01:29:48;9.40;99.90
75321;DHT22;68337;52.196;5.660;2024-02-21T01:32:15;9.30;99.90
75321;DHT22;68337;52.196;5.660;2024-02-21T01:34:44;9.40;99.90
75321;DHT22;68337;52.196;5.660;2024-02-21T01:37:10;9.40;99.90
75321;DHT22;68337;52.196;5.660;2024-02-21T01:39:35;9.30;99.90
75321;DHT22;68337;52.196;5.660;2024-02-21T01:42:01;9.40;99.90
75321;DHT22;68337;52.196;5.660;2024-02-21T01:44:27;9.30;99.90
75321;DHT22;68337;52.196;5.660;2024-02-21T01:46:53;9.30;99.90
75321;DHT22;68337;52.196;5.660;2024-02-21T01:49:19;9.30;99.90
75321;DHT22;68337;52.196;5.660;2024-02-21T01:51:46;9.30;99.90
75321;DHT22;68337;52.196;5.660;2024-02-21T01:54:13;9.30;99.90
75321;DHT22;68337;52.196;5.660;2024-02-21T01:56:41;9.30;99.90
75321;DHT22;68337;52.196;5.660;2024-02-21T01:59:07;9.30;99.90
75321;DHT22;68337;52.196;5.660;2024-02-21T02:01:33;9.30;99.90
75321;DHT22;68337;52.196;5.660;2024-02-21T02:03:59;9.30;99.90
75321;DHT22;68337;52.196;5.660;2024-02-21T02:06:25;9.40;99.90
75321;DHT22;68337;52.196;5.660;2024-02-21T02:08:51;9.40;99.90
75321;DHT22;68337;52.196;5.660;2024-02-21T02:11:17;9.40;99.90
75321;DHT22;68337;52.196;5.660;2024-02-21T02:13:43;9.40;99.90
75321;DHT22;68337;52.196;5.660;2024-02-21T02:16:08;9.30;99.90
75321;DHT22;68337;52.196;5.660;2024-02-21T02:18:34;9.30;99.90
75321;DHT22;68337;52.196;5.660;2024-02-21T02:21:00;9.30;99.90
75321;DHT22;68337;52.196;5.660;2024-02-21T02:23:27;9.30;99.90
75321;DHT22;68337;52.196;5.660;2024-02-21T02:25:53;9.30;99.90
75321;DHT22;68337;52.196;5.660;2024-02-21T02:28:19;9.30;99.90
75321;DHT22;68337;52.196;5.660;2024-02-21T02:30:45;9.30;99.90
75321;DHT22;68337;52.196;5.660;2024-02-21T02:33:11;9.30;99.90
75321;DHT22;68337;52.196;5.660;2024-02-21T02:35:38;9.30;99.90
75321;DHT22;68337;52.196;5.660;2024-02-21T02:38:04;9.30;99.90
75321;DHT22;68337;52.196;5.660;2024-02-21T02:40:30;9.40;99.90
75321;DHT22;68337;52.196;5.660;2024-02-21T02:42:56;9.40;99.90
75321;DHT22;68337;52.196;5.660;2024-02-21T02:45:23;9.30;99.90
75321;DHT22;68337;52.196;5.660;2024-02-21T02:47:49;9.30;99.90
75321;DHT22;68337;52.196;5.660;2024-02-21T02:50:15;9.30;99.90
75321;DHT22;68337;52.196;5.660;2024-02-21T02:52:41;9.30;99.90
75321;DHT22;68337;52.196;5.660;2024-02-21T02:55:07;9.30;99.90
75321;DHT22;68337;52.196;5.660;2024-02-21T02:57:33;9.30;99.90
75321;DHT22;68337;52.196;5.660;2024-02-21T02:59:58;9.30;99.90
75321;DHT22;68337;52.196;5.660;2024-02-21T03:02:24;9.30;99.90
75321;DHT22;68337;52.196;5.660;2024-02-21T03:04:50;9.30;99.90
75321;DHT22;68337;52.196;5.660;2024-02-21T03:07:16;9.40;99.90
75321;DHT22;68337;52.196;5.660;2024-02-21T03:09:42;9.30;99.90
75321;DHT22;68337;52.196;5.660;2024-02-21T03:12:08;9.30;99.90
75321;DHT22;68337;52.196;5.660;2024-02-21T03:14:34;9.30;99.90
75321;DHT22;68337;52.196;5.660;2024-02-21T03:17:01;9.30;99.90
75321;DHT22;68337;52.196;5.660;2024-02-21T03:19:28;9.30;99.90
75321;DHT22;68337;52.196;5.660;2024-02-21T03:21:54;9.30;99.90
75321;DHT22;68337;52.196;5.660;2024-02-21T03:24:20;9.30;99.90
75321;DHT22;68337;52.196;5.660;2024-02-21T03:26:46;9.30;99.90
75321;DHT22;68337;52.196;5.660;2024-02-21T03:29:15;9.30;99.90
75321;DHT22;68337;52.196;5.660;2024-02-21T03:31:41;9.20;99.90
75321;DHT22;68337;52.196;5.660;2024-02-21T03:34:07;9.30;99.90
75321;DHT22;68337;52.196;5.660;2024-02-21T03:36:33;9.20;99.90
75321;DHT22;68337;52.196;5.660;2024-02-21T03:38:59;9.20;99.90
75321;DHT22;68337;52.196;5.660;2024-02-21T03:41:24;9.20;99.90
75321;DHT22;68337;52.196;5.660;2024-02-21T03:43:50;9.20;99.90
75321;DHT22;68337;52.196;5.660;2024-02-21T03:46:16;9.20;99.90
75321;DHT22;68337;52.196;5.660;2024-02-21T03:48:41;9.20;99.90
75321;DHT22;68337;52.196;5.660;2024-02-21T03:51:07;9.20;99.90
75321;DHT22;68337;52.196;5.660;2024-02-21T03:53:33;9.30;99.90
75321;DHT22;68337;52.196;5.660;2024-02-21T03:56:02;9.30;99.90
75321;DHT22;68337;52.196;5.660;2024-02-21T03:58:29;9.20;99.90
75321;DHT22;68337;52.196;5.660;2024-02-21T04:00:55;9.30;99.90
75321;DHT22;68337;52.196;5.660;2024-02-21T04:03:21;9.30;99.90
75321;DHT22;68337;52.196;5.660;2024-02-21T04:05:47;9.30;99.90
75321;DHT22;68337;52.196;5.660;2024-02-21T04:08:13;9.30;99.90
75321;DHT22;68337;52.196;5.660;2024-02-21T04:10:39;9.30;99.90
75321;DHT22;68337;52.196;5.660;2024-02-21T04:13:06;9.20;99.90
75321;DHT22;68337;52.196;5.660;2024-02-21T04:15:32;9.20;99.90
75321;DHT22;68337;52.196;5.660;2024-02-21T04:17:58;9.30;99.90
75321;DHT22;68337;52.196;5.660;2024-02-21T04:20:24;9.30;99.90
75321;DHT22;68337;52.196;5.660;2024-02-21T04:22:49;9.30;99.90
75321;DHT22;68337;52.196;5.660;2024-02-21T04:25:15;9.30;99.90
75321;DHT22;68337;52.196;5.660;2024-02-21T04:27:41;9.20;99.90
75321;DHT22;68337;52.196;5.660;2024-02-21T04:30:08;9.20;99.90
75321;DHT22;68337;52.196;5.660;2024-02-21T04:32:35;9.20;99.90
75321;DHT22;68337;52.196;5.660;2024-02-21T04:35:01;9.20;99.90
75321;DHT22;68337;52.196;5.660;2024-02-21T04:37:26;9.10;99.90
75321;DHT22;68337;52.196;5.660;2024-02-21T04:39:52;9.10;99.90
75321;DHT22;68337;52.196;5.660;2024-02-21T04:42:18;9.10;99.90
75321;DHT22;68337;52.196;5.660;2024-02-21T04:44:44;9.10;99.90
75321;DHT22;68337;52.196;5.660;2024-02-21T04:47:09;9.10;99.90
75321;DHT22;68337;52.196;5.660;2024-02-21T04:49:35;9.10;99.90
75321;DHT22;68337;52.196;5.660;2024-02-21T04:52:01;9.20;99.90
75321;DHT22;68337;52.196;5.660;2024-02-21T04:54:27;9.30;99.90
75321;DHT22;68337;52.196;5.660;2024-02-21T04:56:53;9.20;99.90
75321;DHT22;68337;52.196;5.660;2024-02-21T04:59:18;9.20;99.90
75321;DHT22;68337;52.196;5.660;2024-02-21T05:01:44;9.20;99.90
75321;DHT22;68337;52.196;5.660;2024-02-21T05:04:10;9.20;99.90
75321;DHT22;68337;52.196;5.660;2024-02-21T05:06:38;9.20;99.90
75321;DHT22;68337;52.196;5.660;2024-02-21T05:09:05;9.20;99.90
75321;DHT22;68337;52.196;5.660;2024-02-21T05:11:31;9.20;99.90
75321;DHT22;68337;52.196;5.660;2024-02-21T05:13:56;9.20;99.90
75321;DHT22;68337;52.196;5.660;2024-02-21T05:16:22;9.10;99.90
75321;DHT22;68337;52.196;5.660;2024-02-21T05:18:48;9.10;99.90
75321;DHT22;68337;52.196;5.660;2024-02-21T05:21:14;9.10;99.90
75321;DHT22;68337;52.196;5.660;2024-02-21T05:23:39;9.20;99.90
75321;DHT22;68337;52.196;5.660;2024-02-21T05:26:06;9.10;99.90
75321;DHT22;68337;52.196;5.660;2024-02-21T05:28:32;9.10;99.90
75321;DHT22;68337;52.196;5.660;2024-02-21T05:30:57;9.20;99.90
75321;DHT22;68337;52.196;5.660;2024-02-21T05:33:24;9.10;99.90
75321;DHT22;68337;52.196;5.660;2024-02-21T05:35:50;9.20;99.90
75321;DHT22;68337;52.196;5.660;2024-02-21T05:38:16;9.20;99.90
75321;DHT22;68337;52.196;5.660;2024-02-21T05:40:42;9.10;99.90
75321;DHT22;68337;52.196;5.660;2024-02-21T05:43:08;9.10;99.90
75321;DHT22;68337;52.196;5.660;2024-02-21T05:45:34;9.10;99.90
75321;DHT22;68337;52.196;5.660;2024-02-21T05:48:00;9.10;99.90
75321;DHT22;68337;52.196;5.660;2024-02-21T05:50:26;9.00;99.90
75321;DHT22;68337;52.196;5.660;2024-02-21T05:52:54;9.10;99.90
75321;DHT22;68337;52.196;5.660;2024-02-21T05:55:21;9.10;99.90
75321;DHT22;68337;52.196;5.660;2024-02-21T05:57:46;9.10;99.90
75321;DHT22;68337;52.196;5.660;2024-02-21T06:00:13;9.10;99.90
75321;DHT22;68337;52.196;5.660;2024-02-21T06:02:39;9.10;99.90
75321;DHT22;68337;52.196;5.660;2024-02-21T06:05:06;9.10;99.90
75321;DHT22;68337;52.196;5.660;2024-02-21T06:07:33;9.10;99.90
75321;DHT22;68337;52.196;5.660;2024-02-21T06:10:01;9.20;99.90
75321;DHT22;68337;52.196;5.660;2024-02-21T06:12:27;9.10;99.90
75321;DHT22;68337;52.196;5.660;2024-02-21T06:14:52;9.10;99.90
75321;DHT22;68337;52.196;5.660;2024-02-21T06:17:18;9.10;99.90
75321;DHT22;68337;52.196;5.660;2024-02-21T06:19:44;9.10;99.90
75321;DHT22;68337;52.196;5.660;2024-02-21T06:22:11;9.10;99.90
75321;DHT22;68337;52.196;5.660;2024-02-21T06:24:37;9.00;99.90
75321;DHT22;68337;52.196;5.660;2024-02-21T06:27:04;9.10;99.90
75321;DHT22;68337;52.196;5.660;2024-02-21T06:29:31;9.00;99.90
75321;DHT22;68337;52.196;5.660;2024-02-21T06:31:57;9.00;99.90
75321;DHT22;68337;52.196;5.660;2024-02-21T06:34:23;9.10;99.90
75321;DHT22;68337;52.196;5.660;2024-02-21T06:36:50;9.00;99.90
75321;DHT22;68337;52.196;5.660;2024-02-21T06:39:16;9.00;99.90
75321;DHT22;68337;52.196;5.660;2024-02-21T06:41:42;9.00;99.90
75321;DHT22;68337;52.196;5.660;2024-02-21T06:44:08;8.90;99.90
75321;DHT22;68337;52.196;5.660;2024-02-21T06:46:33;8.90;99.90
75321;DHT22;68337;52.196;5.660;2024-02-21T06:49:00;9.00;99.90
75321;DHT22;68337;52.196;5.660;2024-02-21T06:51:27;8.90;99.90
75321;DHT22;68337;52.196;5.660;2024-02-21T06:53:53;8.90;99.90
75321;DHT22;68337;52.196;5.660;2024-02-21T06:56:19;8.90;99.90
75321;DHT22;68337;52.196;5.660;2024-02-21T06:58:45;8.90;99.90
75321;DHT22;68337;52.196;5.660;2024-02-21T07:01:11;8.90;99.90
75321;DHT22;68337;52.196;5.660;2024-02-21T07:03:37;8.90;99.90
75321;DHT22;68337;52.196;5.660;2024-02-21T07:06:03;8.80;99.90
75321;DHT22;68337;52.196;5.660;2024-02-21T07:08:29;8.90;99.90
75321;DHT22;68337;52.196;5.660;2024-02-21T07:10:55;8.90;99.90
75321;DHT22;68337;52.196;5.660;2024-02-21T07:13:20;8.90;99.90
75321;DHT22;68337;52.196;5.660;2024-02-21T07:15:48;8.90;99.90
75321;DHT22;68337;52.196;5.660;2024-02-21T07:18:14;8.90;99.90
75321;DHT22;68337;52.196;5.660;2024-02-21T07:20:39;9.00;99.90
75321;DHT22;68337;52.196;5.660;2024-02-21T07:23:08;8.90;99.90
75321;DHT22;68337;52.196;5.660;2024-02-21T07:25:34;8.90;99.90
75321;DHT22;68337;52.196;5.660;2024-02-21T07:27:59;8.90;99.90
75321;DHT22;68337;52.196;5.660;2024-02-21T07:30:25;9.00;99.90
75321;DHT22;68337;52.196;5.660;2024-02-21T07:32:51;8.90;99.90
75321;DHT22;68337;52.196;5.660;2024-02-21T07:35:18;8.90;99.90
75321;DHT22;68337;52.196;5.660;2024-02-21T07:37:43;9.00;99.90
75321;DHT22;68337;52.196;5.660;2024-02-21T07:40:16;9.00;99.90
75321;DHT22;68337;52.196;5.660;2024-02-21T07:42:43;9.00;99.90
75321;DHT22;68337;52.196;5.660;2024-02-21T07:45:09;9.00;99.90
75321;DHT22;68337;52.196;5.660;2024-02-21T07:47:36;9.00;99.90
75321;DHT22;68337;52.196;5.660;2024-02-21T07:50:02;9.00;99.90
75321;DHT22;68337;52.196;5.660;2024-02-21T07:52:28;9.00;99.90
75321;DHT22;68337;52.196;5.660;2024-02-21T07:54:54;9.00;99.90
75321;DHT22;68337;52.196;5.660;2024-02-21T07:57:20;9.00;99.90
75321;DHT22;68337;52.196;5.660;2024-02-21T07:59:47;9.00;99.90
75321;DHT22;68337;52.196;5.660;2024-02-21T08:02:14;9.00;99.90
75321;DHT22;68337;52.196;5.660;2024-02-21T08:04:39;9.10;99.90
75321;DHT22;68337;52.196;5.660;2024-02-21T08:07:05;9.10;99.90
75321;DHT22;68337;52.196;5.660;2024-02-21T08:09:31;9.10;99.90
75321;DHT22;68337;52.196;5.660;2024-02-21T08:11:57;9.30;99.90
75321;DHT22;68337;52.196;5.660;2024-02-21T08:14:23;9.20;99.90
75321;DHT22;68337;52.196;5.660;2024-02-21T08:16:51;9.20;99.90
75321;DHT22;68337;52.196;5.660;2024-02-21T08:19:19;9.20;99.90
75321;DHT22;68337;52.196;5.660;2024-02-21T08:21:45;9.20;99.90
75321;DHT22;68337;52.196;5.660;2024-02-21T08:24:13;9.30;99.90
75321;DHT22;68337;52.196;5.660;2024-02-21T08:26:41;9.30;99.90
75321;DHT22;68337;52.196;5.660;2024-02-21T08:29:07;9.20;99.90
75321;DHT22;68337;52.196;5.660;2024-02-21T08:31:32;9.30;99.90
75321;DHT22;68337;52.196;5.660;2024-02-21T08:34:00;9.30;99.90
75321;DHT22;68337;52.196;5.660;2024-02-21T08:36:33;9.40;99.90
75321;DHT22;68337;52.196;5.660;2024-02-21T08:39:00;9.30;99.90
75321;DHT22;68337;52.196;5.660;2024-02-21T08:41:27;9.40;99.90
75321;DHT22;68337;52.196;5.660;2024-02-21T08:43:53;9.30;99.90
75321;DHT22;68337;52.196;5.660;2024-02-21T08:46:21;9.30;99.90
75321;DHT22;68337;52.196;5.660;2024-02-21T08:48:46;9.40;99.90
75321;DHT22;68337;52.196;5.660;2024-02-21T08:51:13;9.40;99.90
75321;DHT22;68337;52.196;5.660;2024-02-21T08:53:39;9.40;99.90
75321;DHT22;68337;52.196;5.660;2024-02-21T08:56:05;9.50;99.90
75321;DHT22;68337;52.196;5.660;2024-02-21T08:58:33;9.50;99.90
75321;DHT22;68337;52.196;5.660;2024-02-21T09:00:58;9.50;99.90
75321;DHT22;68337;52.196;5.660;2024-02-21T09:03:24;9.40;99.90
75321;DHT22;68337;52.196;5.660;2024-02-21T09:05:50;9.50;99.90
75321;DHT22;68337;52.196;5.660;2024-02-21T09:08:16;9.50;99.90
75321;DHT22;68337;52.196;5.660;2024-02-21T09:10:42;9.60;99.90
75321;DHT22;68337;52.196;5.660;2024-02-21T09:13:08;9.60;99.90
75321;DHT22;68337;52.196;5.660;2024-02-21T09:15:34;9.60;99.90
75321;DHT22;68337;52.196;5.660;2024-02-21T09:18:00;9.60;99.90
75321;DHT22;68337;52.196;5.660;2024-02-21T09:20:25;9.70;99.90
75321;DHT22;68337;52.196;5.660;2024-02-21T09:22:51;9.70;99.90
75321;DHT22;68337;52.196;5.660;2024-02-21T09:25:18;9.80;99.90
75321;DHT22;68337;52.196;5.660;2024-02-21T09:27:45;9.80;99.90
75321;DHT22;68337;52.196;5.660;2024-02-21T09:30:11;9.80;99.90
75321;DHT22;68337;52.196;5.660;2024-02-21T09:32:37;9.80;99.90
75321;DHT22;68337;52.196;5.660;2024-02-21T09:35:04;9.80;99.90
75321;DHT22;68337;52.196;5.660;2024-02-21T09:37:31;9.80;99.90
75321;DHT22;68337;52.196;5.660;2024-02-21T09:39:57;9.80;99.90
75321;DHT22;68337;52.196;5.660;2024-02-21T09:42:28;9.90;99.90
75321;DHT22;68337;52.196;5.660;2024-02-21T09:44:56;10.00;99.90
75321;DHT22;68337;52.196;5.660;2024-02-21T09:47:29;10.00;99.90
75321;DHT22;68337;52.196;5.660;2024-02-21T09:49:57;10.00;99.90
75321;DHT22;68337;52.196;5.660;2024-02-21T09:52:24;10.00;99.90
75321;DHT22;68337;52.196;5.660;2024-02-21T09:54:52;10.10;99.90
75321;DHT22;68337;52.196;5.660;2024-02-21T09:57:18;10.00;99.90
75321;DHT22;68337;52.196;5.660;2024-02-21T09:59:45;10.00;99.90
75321;DHT22;68337;52.196;5.660;2024-02-21T10:02:11;10.00;99.90
75321;DHT22;68337;52.196;5.660;2024-02-21T10:04:40;10.00;99.90
75321;DHT22;68337;52.196;5.660;2024-02-21T10:07:06;10.10;99.90
75321;DHT22;68337;52.196;5.660;2024-02-21T10:09:32;10.00;99.90
75321;DHT22;68337;52.196;5.660;2024-02-21T10:12:12;10.10;99.90
75321;DHT22;68337;52.196;5.660;2024-02-21T10:14:38;10.10;99.90
75321;DHT22;68337;52.196;5.660;2024-02-21T10:17:04;10.20;99.90
75321;DHT22;68337;52.196;5.660;2024-02-21T10:19:34;10.10;99.90
75321;DHT22;68337;52.196;5.660;2024-02-21T10:22:07;10.10;99.90
75321;DHT22;68337;52.196;5.660;2024-02-21T10:24:34;10.20;99.90
75321;DHT22;68337;52.196;5.660;2024-02-21T10:27:07;10.20;99.90
75321;DHT22;68337;52.196;5.660;2024-02-21T10:29:35;10.20;99.90
75321;DHT22;68337;52.196;5.660;2024-02-21T10:32:07;10.30;99.90
75321;DHT22;68337;52.196;5.660;2024-02-21T10:34:34;10.30;99.90
75321;DHT22;68337;52.196;5.660;2024-02-21T10:37:02;10.30;99.90
75321;DHT22;68337;52.196;5.660;2024-02-21T10:39:29;10.30;99.90
75321;DHT22;68337;52.196;5.660;2024-02-21T10:42:00;10.30;99.90
75321;DHT22;68337;52.196;5.660;2024-02-21T10:44:28;10.40;99.90
75321;DHT22;68337;52.196;5.660;2024-02-21T10:46:55;10.60;99.90
75321;DHT22;68337;52.196;5.660;2024-02-21T10:49:24;10.60;99.90
75321;DHT22;68337;52.196;5.660;2024-02-21T10:51:55;10.60;99.90
75321;DHT22;68337;52.196;5.660;2024-02-21T10:54:34;10.60;99.90
75321;DHT22;68337;52.196;5.660;2024-02-21T10:57:05;10.50;99.90
75321;DHT22;68337;52.196;5.660;2024-02-21T10:59:32;10.50;99.90
75321;DHT22;68337;52.196;5.660;2024-02-21T11:01:58;10.50;99.90
75321;DHT22;68337;52.196;5.660;2024-02-21T11:04:25;10.50;99.90
75321;DHT22;68337;52.196;5.660;2024-02-21T11:06:52;10.40;99.90
75321;DHT22;68337;52.196;5.660;2024-02-21T11:09:18;10.30;99.90
75321;DHT22;68337;52.196;5.660;2024-02-21T11:11:44;10.20;99.90
75321;DHT22;68337;52.196;5.660;2024-02-21T11:14:11;10.20;99.90
75321;DHT22;68337;52.196;5.660;2024-02-21T11:16:38;10.20;99.90
75321;DHT22;68337;52.196;5.660;2024-02-21T11:19:09;10.30;99.90
75321;DHT22;68337;52.196;5.660;2024-02-21T11:21:37;10.40;99.90
75321;DHT22;68337;52.196;5.660;2024-02-21T11:24:04;10.50;99.90
75321;DHT22;68337;52.196;5.660;2024-02-21T11:26:30;10.60;99.90
75321;DHT22;68337;52.196;5.660;2024-02-21T11:29:00;10.50;99.90
75321;DHT22;68337;52.196;5.660;2024-02-21T11:31:26;10.50;99.90
75321;DHT22;68337;52.196;5.660;2024-02-21T11:33:53;10.40;99.90
75321;DHT22;68337;52.196;5.660;2024-02-21T11:36:24;10.40;99.90
75321;DHT22;68337;52.196;5.660;2024-02-21T11:38:51;10.30;99.90
75321;DHT22;68337;52.196;5.660;2024-02-21T11:41:17;10.20;99.90
75321;DHT22;68337;52.196;5.660;2024-02-21T11:43:43;10.10;99.90
75321;DHT22;68337;52.196;5.660;2024-02-21T11:46:09;10.10;99.90
75321;DHT22;68337;52.196;5.660;2024-02-21T11:48:35;10.10;99.90
75321;DHT22;68337;52.196;5.660;2024-02-21T11:51:00;10.10;99.90
75321;DHT22;68337;52.196;5.660;2024-02-21T11:53:26;10.10;99.90
75321;DHT22;68337;52.196;5.660;2024-02-21T11:55:56;10.10;99.90
75321;DHT22;68337;52.196;5.660;2024-02-21T11:58:22;10.10;99.90
75321;DHT22;68337;52.196;5.660;2024-02-21T12:00:48;10.00;99.90
75321;DHT22;68337;52.196;5.660;2024-02-21T12:03:15;10.00;99.90
75321;DHT22;68337;52.196;5.660;2024-02-21T12:05:41;9.90;99.90
75321;DHT22;68337;52.196;5.660;2024-02-21T12:08:07;10.00;99.90
75321;DHT22;68337;52.196;5.660;2024-02-21T12:10:35;10.00;99.90
75321;DHT22;68337;52.196;5.660;2024-02-21T12:13:07;9.90;99.90
75321;DHT22;68337;52.196;5.660;2024-02-21T12:15:33;9.90;99.90
75321;DHT22;68337;52.196;5.660;2024-02-21T12:17:59;10.00;99.90
75321;DHT22;68337;52.196;5.660;2024-02-21T12:20:26;10.10;99.90
75321;DHT22;68337;52.196;5.660;2024-02-21T12:22:52;10.20;99.90
75321;DHT22;68337;52.196;5.660;2024-02-21T12:25:21;10.30;99.90
75321;DHT22;68337;52.196;5.660;2024-02-21T12:27:49;10.40;99.90
75321;DHT22;68337;52.196;5.660;2024-02-21T12:30:15;10.50;99.90
75321;DHT22;68337;52.196;5.660;2024-02-21T12:32:41;10.60;99.90
75321;DHT22;68337;52.196;5.660;2024-02-21T12:35:07;10.70;99.90
75321;DHT22;68337;52.196;5.660;2024-02-21T12:37:33;10.80;99.90
75321;DHT22;68337;52.196;5.660;2024-02-21T12:39:59;10.80;99.90
75321;DHT22;68337;52.196;5.660;2024-02-21T12:42:25;10.80;99.90
75321;DHT22;68337;52.196;5.660;2024-02-21T12:44:52;10.80;99.90
75321;DHT22;68337;52.196;5.660;2024-02-21T12:47:18;10.90;99.90
75321;DHT22;68337;52.196;5.660;2024-02-21T12:49:45;10.90;99.90
75321;DHT22;68337;52.196;5.660;2024-02-21T12:52:11;10.90;99.90
75321;DHT22;68337;52.196;5.660;2024-02-21T12:54:38;11.00;99.90
75321;DHT22;68337;52.196;5.660;2024-02-21T12:57:04;11.00;99.90
75321;DHT22;68337;52.196;5.660;2024-02-21T12:59:30;10.90;99.90
75321;DHT22;68337;52.196;5.660;2024-02-21T13:01:56;10.80;99.90
75321;DHT22;68337;52.196;5.660;2024-02-21T13:04:22;10.80;99.90
75321;DHT22;68337;52.196;5.660;2024-02-21T13:06:48;10.80;99.90
75321;DHT22;68337;52.196;5.660;2024-02-21T13:09:14;10.90;99.90
75321;DHT22;68337;52.196;5.660;2024-02-21T13:11:42;10.90;99.90
75321;DHT22;68337;52.196;5.660;2024-02-21T13:14:08;11.00;99.90
75321;DHT22;68337;52.196;5.660;2024-02-21T13:16:34;10.90;99.90
75321;DHT22;68337;52.196;5.660;2024-02-21T13:19:05;11.00;99.90
75321;DHT22;68337;52.196;5.660;2024-02-21T13:21:31;11.00;99.90
75321;DHT22;68337;52.196;5.660;2024-02-21T13:23:56;11.00;99.90
75321;DHT22;68337;52.196;5.660;2024-02-21T13:26:22;10.90;99.90
75321;DHT22;68337;52.196;5.660;2024-02-21T13:28:48;10.90;99.90
75321;DHT22;68337;52.196;5.660;2024-02-21T13:31:15;10.90;99.90
75321;DHT22;68337;52.196;5.660;2024-02-21T13:33:42;10.90;99.90
75321;DHT22;68337;52.196;5.660;2024-02-21T13:36:10;10.90;99.90
75321;DHT22;68337;52.196;5.660;2024-02-21T13:38:36;10.90;99.90
75321;DHT22;68337;52.196;5.660;2024-02-21T13:41:02;10.90;99.90
75321;DHT22;68337;52.196;5.660;2024-02-21T13:43:28;10.80;99.90
75321;DHT22;68337;52.196;5.660;2024-02-21T13:46:01;10.70;99.90
75321;DHT22;68337;52.196;5.660;2024-02-21T13:48:29;10.80;99.90
75321;DHT22;68337;52.196;5.660;2024-02-21T13:50:55;10.80;99.90
75321;DHT22;68337;52.196;5.660;2024-02-21T13:53:21;10.80;99.90
75321;DHT22;68337;52.196;5.660;2024-02-21T13:55:48;10.70;99.90
75321;DHT22;68337;52.196;5.660;2024-02-21T13:58:15;10.80;99.90
75321;DHT22;68337;52.196;5.660;2024-02-21T14:00:41;10.80;99.90
75321;DHT22;68337;52.196;5.660;2024-02-21T14:03:07;10.70;99.90
75321;DHT22;68337;52.196;5.660;2024-02-21T14:05:32;10.70;99.90
75321;DHT22;68337;52.196;5.660;2024-02-21T14:07:58;10.70;99.90
75321;DHT22;68337;52.196;5.660;2024-02-21T14:10:24;10.80;99.90
75321;DHT22;68337;52.196;5.660;2024-02-21T14:12:50;10.80;99.90
75321;DHT22;68337;52.196;5.660;2024-02-21T14:15:16;10.80;99.90
75321;DHT22;68337;52.196;5.660;2024-02-21T14:17:43;10.80;99.90
75321;DHT22;68337;52.196;5.660;2024-02-21T14:20:09;10.80;99.90
75321;DHT22;68337;52.196;5.660;2024-02-21T14:22:35;10.80;99.90
75321;DHT22;68337;52.196;5.660;2024-02-21T14:25:03;10.70;99.90
75321;DHT22;68337;52.196;5.660;2024-02-21T14:27:31;10.80;99.90
75321;DHT22;68337;52.196;5.660;2024-02-21T14:29:57;10.70;99.90
75321;DHT22;68337;52.196;5.660;2024-02-21T14:32:23;10.70;99.90
75321;DHT22;68337;52.196;5.660;2024-02-21T14:34:49;10.60;99.90
75321;DHT22;68337;52.196;5.660;2024-02-21T14:37:15;10.60;99.90
75321;DHT22;68337;52.196;5.660;2024-02-21T14:39:41;10.70;99.90
75321;DHT22;68337;52.196;5.660;2024-02-21T14:42:07;10.60;99.90
75321;DHT22;68337;52.196;5.660;2024-02-21T14:44:35;10.60;99.90
75321;DHT22;68337;52.196;5.660;2024-02-21T14:47:02;10.70;99.90
75321;DHT22;68337;52.196;5.660;2024-02-21T14:49:29;10.70;99.90
75321;DHT22;68337;52.196;5.660;2024-02-21T14:51:55;10.70;99.90
75321;DHT22;68337;52.196;5.660;2024-02-21T14:54:21;10.70;99.90
75321;DHT22;68337;52.196;5.660;2024-02-21T14:56:46;10.70;99.90
75321;DHT22;68337;52.196;5.660;2024-02-21T14:59:13;10.70;99.90
75321;DHT22;68337;52.196;5.660;2024-02-21T15:01:39;10.60;99.90
75321;DHT22;68337;52.196;5.660;2024-02-21T15:04:05;10.70;99.90
75321;DHT22;68337;52.196;5.660;2024-02-21T15:06:31;10.60;99.90
75321;DHT22;68337;52.196;5.660;2024-02-21T15:08:57;10.60;99.90
75321;DHT22;68337;52.196;5.660;2024-02-21T15:11:24;10.60;99.90
75321;DHT22;68337;52.196;5.660;2024-02-21T15:13:50;10.50;99.90
75321;DHT22;68337;52.196;5.660;2024-02-21T15:16:16;10.50;99.90
75321;DHT22;68337;52.196;5.660;2024-02-21T15:18:43;10.40;99.90
75321;DHT22;68337;52.196;5.660;2024-02-21T15:21:08;10.30;99.90
75321;DHT22;68337;52.196;5.660;2024-02-21T15:23:39;10.20;99.90
75321;DHT22;68337;52.196;5.660;2024-02-21T15:26:05;10.20;99.90
75321;DHT22;68337;52.196;5.660;2024-02-21T15:28:33;10.10;99.90
75321;DHT22;68337;52.196;5.660;2024-02-21T15:31:00;10.10;99.90
75321;DHT22;68337;52.196;5.660;2024-02-21T15:33:25;10.00;99.90
75321;DHT22;68337;52.196;5.660;2024-02-21T15:35:52;10.00;99.90